createdAt,value
2022-12-24T00:01:33.092Z,87.03
2022-12-24T00:03:59.560Z,87.22
2022-12-24T00:06:25.988Z,87.30
2022-12-24T00:08:52.486Z,87.14
2022-12-24T00:11:19.706Z,87.27
2022-12-24T00:13:46.301Z,87.17
2022-12-24T00:16:12.860Z,87.47
2022-12-24T00:18:45.547Z,87.43
2022-12-24T00:21:13.073Z,87.49
2022-12-24T00:23:40.423Z,87.31
2022-12-24T00:26:06.846Z,87.36
2022-12-24T00:28:33.191Z,87.03
2022-12-24T00:30:59.542Z,87.04
2022-12-24T00:33:26.062Z,87.00
2022-12-24T00:35:53.120Z,87.00
2022-12-24T00:38:19.616Z,87.16
2022-12-24T00:40:46.074Z,87.11
2022-12-24T00:43:12.550Z,86.97
2022-12-24T00:45:38.921Z,87.09
2022-12-24T00:48:05.605Z,86.77
2022-12-24T00:50:31.961Z,86.71
2022-12-24T00:52:58.337Z,86.62
2022-12-24T00:55:24.713Z,86.59
2022-12-24T00:57:51.092Z,86.55
2022-12-24T01:00:17.987Z,86.51
2022-12-24T01:02:44.848Z,86.33
2022-12-24T01:05:11.868Z,86.55
2022-12-24T01:07:44.051Z,86.86
2022-12-24T01:10:13.038Z,86.87
2022-12-24T01:12:39.527Z,86.82
2022-12-24T01:15:06.687Z,86.57
2022-12-24T01:17:34.142Z,86.39
2022-12-24T01:20:00.893Z,86.73
2022-12-24T01:22:27.412Z,86.42
2022-12-24T01:24:53.786Z,86.71
2022-12-24T01:27:20.263Z,86.40
2022-12-24T01:29:46.623Z,86.74
2022-12-24T01:32:12.978Z,86.65
2022-12-24T01:34:39.347Z,86.86
2022-12-24T01:37:05.762Z,86.72
2022-12-24T01:39:32.498Z,86.68
2022-12-24T01:42:17.587Z,86.69
2022-12-24T01:44:51.347Z,86.70
2022-12-24T01:47:19.888Z,86.85
2022-12-24T01:50:17.726Z,86.68
2022-12-24T01:52:44.268Z,86.93
2022-12-24T01:55:15.462Z,86.64
2022-12-24T01:57:46.432Z,86.93
2022-12-24T02:00:15.751Z,86.79
2022-12-24T02:02:46.377Z,87.11
2022-12-24T02:05:18.776Z,87.16
2022-12-24T02:07:46.399Z,86.85
2022-12-24T02:10:14.109Z,86.82
2022-12-24T02:12:42.145Z,87.11
2022-12-24T02:15:11.462Z,86.97
2022-12-24T02:17:49.632Z,86.79
2022-12-24T02:20:50.062Z,87.26
2022-12-24T02:23:35.386Z,87.19
2022-12-24T02:26:52.911Z,87.19
2022-12-24T02:29:47.308Z,87.35
2022-12-24T02:32:22.879Z,87.21
2022-12-24T02:35:02.419Z,87.18
2022-12-24T02:37:34.948Z,87.53
2022-12-24T02:40:13.830Z,87.09
2022-12-24T02:42:46.426Z,87.57
2022-12-24T02:45:28.984Z,87.09
2022-12-24T02:47:56.396Z,87.25
2022-12-24T02:50:23.718Z,87.63
2022-12-24T02:52:50.788Z,87.44
2022-12-24T02:55:19.968Z,87.79
2022-12-24T02:58:02.548Z,87.42
2022-12-24T03:00:40.882Z,87.78
2022-12-24T03:03:28.516Z,87.29
2022-12-24T03:06:20.167Z,87.66
2022-12-24T03:08:58.997Z,87.47
2022-12-24T03:11:25.784Z,87.84
2022-12-24T03:13:55.155Z,87.54
2022-12-24T03:16:24.828Z,87.34
2022-12-24T03:18:54.308Z,87.56
2022-12-24T03:21:35.592Z,87.31
2022-12-24T03:24:02.556Z,87.64
2022-12-24T03:26:31.049Z,87.50
2022-12-24T03:28:57.485Z,87.92
2022-12-24T03:31:24.083Z,87.53
2022-12-24T03:33:50.785Z,87.29
2022-12-24T03:36:17.374Z,87.82
2022-12-24T03:38:43.890Z,87.87
2022-12-24T03:41:10.390Z,87.67
2022-12-24T03:43:36.774Z,87.63
2022-12-24T03:46:06.216Z,88.16
2022-12-24T03:48:35.146Z,87.95
2022-12-24T03:51:02.543Z,88.17
2022-12-24T03:53:28.933Z,88.31
2022-12-24T03:55:55.308Z,88.70
2022-12-24T03:58:21.657Z,88.95
2022-12-24T04:00:48.025Z,89.47
2022-12-24T04:03:14.596Z,89.12
2022-12-24T04:05:41.066Z,89.19
2022-12-24T04:08:07.384Z,89.57
2022-12-24T04:10:33.725Z,89.69
2022-12-24T04:13:00.103Z,89.65
2022-12-24T04:15:26.572Z,89.71
2022-12-24T04:17:52.973Z,90.25
2022-12-24T04:20:19.592Z,90.10
2022-12-24T04:22:45.988Z,90.46
2022-12-24T04:25:12.305Z,90.43
2022-12-24T04:27:38.694Z,90.42
2022-12-24T04:30:05.801Z,90.64
2022-12-24T04:32:32.176Z,90.77
2022-12-24T04:34:58.505Z,90.68
2022-12-24T04:37:24.931Z,90.61
2022-12-24T04:39:51.308Z,90.86
2022-12-24T04:42:17.655Z,91.19
2022-12-24T04:44:44.063Z,90.90
2022-12-24T04:47:10.887Z,90.98
2022-12-24T04:49:37.369Z,91.28
2022-12-24T04:52:03.757Z,91.22
2022-12-24T04:54:30.118Z,91.25
2022-12-24T04:56:56.433Z,91.33
2022-12-24T04:59:22.789Z,91.37
2022-12-24T05:01:49.285Z,91.19
2022-12-24T05:04:15.681Z,91.51
2022-12-24T05:06:42.069Z,91.21
2022-12-24T05:09:08.418Z,91.14
2022-12-24T05:11:34.833Z,91.35
2022-12-24T05:14:01.275Z,91.35
2022-12-24T05:16:27.697Z,91.45
2022-12-24T05:18:54.508Z,91.47
2022-12-24T05:21:23.244Z,91.46
2022-12-24T05:24:08.595Z,91.69
2022-12-24T05:26:37.726Z,91.76
2022-12-24T05:29:05.537Z,91.75
2022-12-24T05:31:33.755Z,91.62
2022-12-24T05:34:01.290Z,91.98
2022-12-24T05:36:27.862Z,91.87
2022-12-24T05:38:54.289Z,92.08
2022-12-24T05:41:20.802Z,92.16
2022-12-24T05:43:47.342Z,92.38
2022-12-24T05:46:16.790Z,92.09
2022-12-24T05:48:43.207Z,92.02
2022-12-24T05:51:12.616Z,92.33
2022-12-24T05:53:40.208Z,92.22
2022-12-24T05:56:13.002Z,92.47
2022-12-24T05:58:40.607Z,92.53
2022-12-24T06:01:08.330Z,92.36
2022-12-24T06:03:34.814Z,92.61
2022-12-24T06:06:03.366Z,92.62
2022-12-24T06:08:31.212Z,92.76
2022-12-24T06:11:03.688Z,93.02
2022-12-24T06:13:31.242Z,92.75
2022-12-24T06:15:59.714Z,92.82
2022-12-24T06:18:26.748Z,92.90
2022-12-24T06:20:55.871Z,93.15
2022-12-24T06:23:22.970Z,93.15
2022-12-24T06:25:49.543Z,93.16
2022-12-24T06:28:16.472Z,93.17
2022-12-24T06:30:47.610Z,93.36
2022-12-24T06:33:14.584Z,93.11
2022-12-24T06:35:41.380Z,93.10
2022-12-24T06:38:07.768Z,93.29
2022-12-24T06:40:34.094Z,93.13
2022-12-24T06:43:00.490Z,93.42
2022-12-24T06:45:26.901Z,93.56
2022-12-24T06:47:53.301Z,93.34
2022-12-24T06:50:19.630Z,93.41
2022-12-24T06:52:46.044Z,93.13
2022-12-24T06:55:12.381Z,93.27
2022-12-24T06:57:38.776Z,93.20
2022-12-24T07:00:07.565Z,93.11
2022-12-24T07:02:34.036Z,93.37
2022-12-24T07:05:00.559Z,93.34
2022-12-24T07:07:26.992Z,92.85
2022-12-24T07:09:53.329Z,93.04
2022-12-24T07:12:19.650Z,93.23
2022-12-24T07:14:45.991Z,93.03
2022-12-24T07:17:12.526Z,92.96
2022-12-24T07:19:38.913Z,92.67
2022-12-24T07:22:10.216Z,92.86
2022-12-24T07:24:39.828Z,92.77
2022-12-24T07:27:06.202Z,92.63
2022-12-24T07:29:32.526Z,92.70
2022-12-24T07:31:59.006Z,92.66
2022-12-24T07:34:25.398Z,92.65
2022-12-24T07:36:51.821Z,93.00
2022-12-24T07:39:18.198Z,92.92
2022-12-24T07:41:44.595Z,92.64
2022-12-24T07:44:14.728Z,92.71
2022-12-24T07:46:41.285Z,92.96
2022-12-24T07:49:08.006Z,93.09
2022-12-24T07:51:34.349Z,92.53
2022-12-24T07:54:00.715Z,92.67
2022-12-24T07:56:27.136Z,92.75
2022-12-24T07:58:53.471Z,92.67
2022-12-24T08:01:19.924Z,92.54
2022-12-24T08:03:46.708Z,92.48
2022-12-24T08:06:13.231Z,92.48
2022-12-24T08:08:39.654Z,92.11
2022-12-24T08:11:06.893Z,92.35
2022-12-24T08:13:33.682Z,92.37
2022-12-24T08:16:00.155Z,92.02
2022-12-24T08:18:26.606Z,92.19
2022-12-24T08:20:52.987Z,92.08
2022-12-24T08:23:19.319Z,91.96
2022-12-24T08:25:47.181Z,91.94
2022-12-24T08:28:16.467Z,91.85
2022-12-24T08:30:43.452Z,92.10
2022-12-24T08:33:10.357Z,91.75
2022-12-24T08:35:37.172Z,92.09
2022-12-24T08:38:03.658Z,91.99
2022-12-24T08:40:30.083Z,92.11
2022-12-24T08:42:56.691Z,91.68
2022-12-24T08:45:23.132Z,91.82
2022-12-24T08:47:49.533Z,91.88
2022-12-24T08:50:16.184Z,91.82
2022-12-24T08:52:42.569Z,91.78
2022-12-24T08:55:09.214Z,92.08
2022-12-24T08:57:37.273Z,92.11
2022-12-24T09:00:06.692Z,92.15
2022-12-24T09:02:33.405Z,91.92
2022-12-24T09:04:59.836Z,91.97
2022-12-24T09:07:26.352Z,92.03
2022-12-24T09:09:52.743Z,91.77
2022-12-24T09:12:19.132Z,92.04
2022-12-24T09:14:45.635Z,91.94
2022-12-24T09:17:12.020Z,92.38
2022-12-24T09:19:38.587Z,91.79
2022-12-24T09:22:04.946Z,91.92
2022-12-24T09:24:31.706Z,91.70
2022-12-24T09:26:58.330Z,91.78
2022-12-24T09:29:25.121Z,91.67
2022-12-24T09:31:51.677Z,91.88
2022-12-24T09:34:18.083Z,91.83
2022-12-24T09:36:46.145Z,91.60
2022-12-24T09:39:12.900Z,91.85
2022-12-24T09:42:06.040Z,91.67
2022-12-24T09:44:47.195Z,91.32
2022-12-24T09:47:26.316Z,91.43
2022-12-24T09:49:56.651Z,91.32
2022-12-24T09:52:45.505Z,91.53
2022-12-24T09:55:25.400Z,91.31
2022-12-24T09:57:54.508Z,91.29
2022-12-24T10:00:24.394Z,91.09
2022-12-24T10:02:51.106Z,91.19
2022-12-24T10:05:22.706Z,90.87
2022-12-24T10:08:30.553Z,90.70
2022-12-24T10:11:38.631Z,90.75
2022-12-24T10:14:26.363Z,90.73
2022-12-24T10:17:21.562Z,90.83
2022-12-24T10:19:59.584Z,90.75
2022-12-24T10:22:58.065Z,90.75
2022-12-24T10:25:49.476Z,90.55
2022-12-24T10:28:20.530Z,90.56
2022-12-24T10:30:50.149Z,90.78
2022-12-24T10:33:26.514Z,90.67
2022-12-24T10:35:56.363Z,90.62
2022-12-24T10:38:22.909Z,90.49
2022-12-24T10:40:52.976Z,90.52
2022-12-24T10:43:22.225Z,90.30
2022-12-24T10:45:56.087Z,90.13
2022-12-24T10:48:33.394Z,89.73
2022-12-24T10:51:06.262Z,90.14
2022-12-24T10:54:00.516Z,89.87
2022-12-24T10:56:28.120Z,89.48
2022-12-24T10:58:55.499Z,89.44
2022-12-24T11:01:49.718Z,89.69
2022-12-24T11:04:24.640Z,89.77
2022-12-24T11:07:03.012Z,89.78
2022-12-24T11:09:32.971Z,89.85
2022-12-24T11:12:08.416Z,89.48
2022-12-24T11:14:38.739Z,89.60
2022-12-24T11:17:05.800Z,89.39
2022-12-24T11:19:35.391Z,89.37
2022-12-24T11:22:22.805Z,89.61
2022-12-24T11:24:57.867Z,89.53
2022-12-24T11:27:38.818Z,89.36
2022-12-24T11:30:30.823Z,89.34
2022-12-24T11:33:00.042Z,89.23
2022-12-24T11:35:27.593Z,88.96
2022-12-24T11:37:59.859Z,89.07
2022-12-24T11:40:35.483Z,88.78
2022-12-24T11:43:03.613Z,88.73
2022-12-24T11:45:32.453Z,88.23
2022-12-24T11:48:00.101Z,88.24
2022-12-24T11:50:29.678Z,87.50
2022-12-24T11:53:19.869Z,86.95
2022-12-24T11:55:54.981Z,86.07
2022-12-24T11:58:42.854Z,85.91
2022-12-24T12:01:21.787Z,85.87
2022-12-24T12:04:05.024Z,86.01
2022-12-24T12:06:34.177Z,85.69
2022-12-24T12:09:05.779Z,85.45
2022-12-24T12:11:35.560Z,85.47
2022-12-24T12:14:03.846Z,84.86
2022-12-24T12:17:03.735Z,84.73
2022-12-24T12:19:38.400Z,84.38
2022-12-24T12:22:11.393Z,84.09
2022-12-24T12:24:45.502Z,83.45
2022-12-24T12:27:20.427Z,83.73
2022-12-24T12:29:55.604Z,83.55
2022-12-24T12:32:38.999Z,83.93
2022-12-24T12:35:14.128Z,83.83
2022-12-24T12:37:45.442Z,83.66
2022-12-24T12:40:17.613Z,83.38
2022-12-24T12:43:01.367Z,83.58
2022-12-24T12:45:49.710Z,83.15
2022-12-24T12:48:24.923Z,83.32
2022-12-24T12:51:04.773Z,82.86
2022-12-24T12:54:14.164Z,83.09
2022-12-24T12:56:48.427Z,83.14
2022-12-24T12:59:14.838Z,83.18
2022-12-24T13:01:54.285Z,83.43
2022-12-24T13:04:39.571Z,83.56
2022-12-24T13:07:38.381Z,83.75
2022-12-24T13:10:41.740Z,83.65
2022-12-24T13:13:39.377Z,83.59
2022-12-24T13:16:33.922Z,82.94
2022-12-24T13:19:38.457Z,83.22
2022-12-24T13:22:13.501Z,82.81
2022-12-24T13:24:40.052Z,83.19
2022-12-24T13:27:17.428Z,83.17
2022-12-24T13:30:07.266Z,83.39
2022-12-24T13:32:51.345Z,83.55
2022-12-24T13:35:20.628Z,83.02
2022-12-24T13:37:48.866Z,83.03
2022-12-24T13:40:15.792Z,83.04
2022-12-24T13:43:06.470Z,82.95
2022-12-24T13:45:38.996Z,82.94
2022-12-24T13:48:11.176Z,82.71
2022-12-24T13:50:52.848Z,82.81
2022-12-24T13:53:41.973Z,82.69
2022-12-24T13:56:14.420Z,82.78
2022-12-24T13:58:45.502Z,83.26
2022-12-24T14:01:16.321Z,82.93
2022-12-24T14:03:45.503Z,82.33
2022-12-24T14:06:23.353Z,82.74
2022-12-24T14:08:53.431Z,83.02
2022-12-24T14:11:22.633Z,82.97
2022-12-24T14:13:48.977Z,83.42
2022-12-24T14:16:18.791Z,83.57
2022-12-24T14:19:25.073Z,83.52
2022-12-24T14:22:18.601Z,83.38
2022-12-24T14:24:53.633Z,83.40
2022-12-24T14:27:25.604Z,83.30
2022-12-24T14:29:57.801Z,83.08
2022-12-24T14:32:24.177Z,83.26
2022-12-24T14:35:21.628Z,83.50
2022-12-24T14:38:00.491Z,83.43
2022-12-24T14:40:30.448Z,83.44
2022-12-24T14:43:14.263Z,83.67
2022-12-24T14:45:51.717Z,83.71
2022-12-24T14:48:34.344Z,83.62
2022-12-24T14:51:06.648Z,83.78
2022-12-24T14:53:59.086Z,83.47
2022-12-24T14:56:25.644Z,83.73
2022-12-24T14:58:52.386Z,83.50
2022-12-24T15:01:26.529Z,83.39
2022-12-24T15:04:09.305Z,83.44
2022-12-24T15:06:49.233Z,83.32
2022-12-24T15:09:20.202Z,83.77
2022-12-24T15:11:49.407Z,83.77
2022-12-24T15:14:16.493Z,83.85
2022-12-24T15:16:54.625Z,83.84
2022-12-24T15:19:27.105Z,84.19
2022-12-24T15:21:54.830Z,84.64
2022-12-24T15:24:36.646Z,84.42
2022-12-24T15:27:15.296Z,84.57
2022-12-24T15:29:47.415Z,84.82
2022-12-24T15:32:15.864Z,84.76
2022-12-24T15:34:44.804Z,84.70
2022-12-24T15:37:29.069Z,84.95
2022-12-24T15:39:58.011Z,84.97
2022-12-24T15:42:26.173Z,84.99
2022-12-24T15:45:12.917Z,85.30
2022-12-24T15:47:47.255Z,85.45
2022-12-24T15:50:28.389Z,85.35
2022-12-24T15:53:19.471Z,85.30
2022-12-24T15:55:45.471Z,85.33
2022-12-24T15:58:25.558Z,85.29
2022-12-24T16:01:14.317Z,85.65
2022-12-24T16:04:01.492Z,85.69
2022-12-24T16:06:28.395Z,85.55
2022-12-24T16:08:56.403Z,85.69
2022-12-24T16:11:24.709Z,85.67
2022-12-24T16:13:51.097Z,85.83
2022-12-24T16:16:32.909Z,85.81
2022-12-24T16:19:01.169Z,86.07
2022-12-24T16:21:34.518Z,86.09
2022-12-24T16:24:15.169Z,85.68
2022-12-24T16:26:41.573Z,85.92
2022-12-24T16:29:08.453Z,85.31
2022-12-24T16:31:38.713Z,85.51
2022-12-24T16:34:05.886Z,85.39
2022-12-24T16:36:32.897Z,84.77
2022-12-24T16:39:18.579Z,85.35
2022-12-24T16:42:03.198Z,84.86
2022-12-24T16:44:29.674Z,85.13
2022-12-24T16:46:56.391Z,85.12
2022-12-24T16:49:23.460Z,85.07
2022-12-24T16:51:49.896Z,85.04
2022-12-24T16:54:16.318Z,85.11
2022-12-24T16:56:43.804Z,84.99
2022-12-24T16:59:18.719Z,85.36
2022-12-24T17:01:45.311Z,85.28
2022-12-24T17:04:11.906Z,85.33
2022-12-24T17:06:38.287Z,85.31
2022-12-24T17:09:05.456Z,85.17
2022-12-24T17:11:32.255Z,85.15
2022-12-24T17:13:58.618Z,85.10
2022-12-24T17:16:25.086Z,84.43
2022-12-24T17:18:52.101Z,84.69
2022-12-24T17:21:19.174Z,84.85
2022-12-24T17:23:45.852Z,84.57
2022-12-24T17:26:15.250Z,83.64
2022-12-24T17:28:42.953Z,84.12
2022-12-24T17:31:11.352Z,83.69
2022-12-24T17:33:37.810Z,84.28
2022-12-24T17:36:04.833Z,83.94
2022-12-24T17:38:31.230Z,83.76
2022-12-24T17:41:06.468Z,83.66
2022-12-24T17:43:36.502Z,83.95
2022-12-24T17:46:07.461Z,83.38
2022-12-24T17:48:33.925Z,83.64
2022-12-24T17:51:07.871Z,83.17
2022-12-24T17:53:35.386Z,83.66
2022-12-24T17:56:02.074Z,82.82
2022-12-24T17:58:29.680Z,83.07
2022-12-24T18:00:57.002Z,83.50
2022-12-24T18:03:23.905Z,83.42
2022-12-24T18:05:51.760Z,82.86
2022-12-24T18:08:19.340Z,82.83
2022-12-24T18:10:46.629Z,83.00
2022-12-24T18:13:19.108Z,82.97
2022-12-24T18:15:45.964Z,82.82
2022-12-24T18:18:12.364Z,83.21
2022-12-24T18:20:46.019Z,82.64
2022-12-24T18:23:13.259Z,82.89
2022-12-24T18:25:39.643Z,83.05
2022-12-24T18:28:05.985Z,82.83
2022-12-24T18:30:32.328Z,83.10
2022-12-24T18:33:00.329Z,83.00
2022-12-24T18:35:26.876Z,82.70
2022-12-24T18:37:53.431Z,82.86
2022-12-24T18:40:20.493Z,83.00
2022-12-24T18:42:46.880Z,82.74
2022-12-24T18:45:13.408Z,82.61
2022-12-24T18:47:39.779Z,82.69
2022-12-24T18:50:07.408Z,82.80
2022-12-24T18:52:35.075Z,83.05
2022-12-24T18:55:01.499Z,82.78
2022-12-24T18:57:27.940Z,82.44
2022-12-24T18:59:55.856Z,82.87
2022-12-24T19:02:22.319Z,82.68
2022-12-24T19:04:48.824Z,82.41
2022-12-24T19:07:15.246Z,82.98
2022-12-24T19:09:41.667Z,82.18
2022-12-24T19:12:08.136Z,82.69
2022-12-24T19:14:34.544Z,82.35
2022-12-24T19:17:00.923Z,82.64
2022-12-24T19:19:27.542Z,82.99
2022-12-24T19:21:53.937Z,82.76
2022-12-24T19:24:20.382Z,82.67
2022-12-24T19:26:46.789Z,82.55
2022-12-24T19:29:13.166Z,82.74
2022-12-24T19:31:40.601Z,83.00
2022-12-24T19:34:07.109Z,83.05
2022-12-24T19:36:34.600Z,83.04
2022-12-24T19:39:01.086Z,82.72
2022-12-24T19:41:29.306Z,83.17
2022-12-24T19:43:58.111Z,83.31
2022-12-24T19:46:33.133Z,83.43
2022-12-24T19:49:02.325Z,83.54
2022-12-24T19:51:29.435Z,83.83
2022-12-24T19:53:58.189Z,83.39
2022-12-24T19:56:26.258Z,83.46
2022-12-24T19:58:54.191Z,83.37
2022-12-24T20:01:23.509Z,83.57
2022-12-24T20:03:51.604Z,83.63
2022-12-24T20:06:21.605Z,83.64
2022-12-24T20:08:48.287Z,83.54
2022-12-24T20:11:17.616Z,84.08
2022-12-24T20:13:44.701Z,84.14
2022-12-24T20:16:18.044Z,84.13
2022-12-24T20:18:44.575Z,84.42
2022-12-24T20:21:13.152Z,84.43
2022-12-24T20:23:40.757Z,85.10
2022-12-24T20:26:10.608Z,85.56
2022-12-24T20:28:37.357Z,85.94
2022-12-24T20:31:16.928Z,85.98
2022-12-24T20:33:44.375Z,86.06
2022-12-24T20:36:12.169Z,86.03
2022-12-24T20:38:39.195Z,86.60
2022-12-24T20:41:06.401Z,86.50
2022-12-24T20:43:37.226Z,86.73
2022-12-24T20:46:06.529Z,86.67
2022-12-24T20:48:33.510Z,86.64
2022-12-24T20:50:59.950Z,86.76
2022-12-24T20:53:26.761Z,86.87
2022-12-24T20:55:53.910Z,87.14
2022-12-24T20:58:20.550Z,86.96
2022-12-24T21:00:48.185Z,87.24
2022-12-24T21:03:15.671Z,87.24
2022-12-24T21:05:42.573Z,87.34
2022-12-24T21:08:10.164Z,87.58
2022-12-24T21:10:37.643Z,87.20
2022-12-24T21:13:04.718Z,87.20
2022-12-24T21:15:35.031Z,87.31
2022-12-24T21:18:04.661Z,87.70
2022-12-24T21:20:31.367Z,87.49
2022-12-24T21:23:01.031Z,87.47
2022-12-24T21:25:27.990Z,87.87
2022-12-24T21:27:55.565Z,87.48
2022-12-24T21:30:22.526Z,88.04
2022-12-24T21:32:48.987Z,87.96
2022-12-24T21:35:15.655Z,87.75
2022-12-24T21:37:42.319Z,88.04
2022-12-24T21:40:09.979Z,88.09
2022-12-24T21:42:37.030Z,87.73
2022-12-24T21:45:04.839Z,87.82
2022-12-24T21:47:31.222Z,88.19
2022-12-24T21:50:16.372Z,87.94
2022-12-24T21:52:42.797Z,87.83
2022-12-24T21:55:09.162Z,88.17
2022-12-24T21:57:53.781Z,88.08
2022-12-24T22:00:30.502Z,88.21
2022-12-24T22:02:58.578Z,88.29
2022-12-24T22:05:26.192Z,87.76
2022-12-24T22:08:12.742Z,87.88
2022-12-24T22:10:58.049Z,88.08
2022-12-24T22:13:24.985Z,87.88
2022-12-24T22:15:53.121Z,87.68
2022-12-24T22:18:22.461Z,87.76
2022-12-24T22:20:49.218Z,87.86
2022-12-24T22:23:16.681Z,88.11
2022-12-24T22:25:46.119Z,88.24
2022-12-24T22:28:12.485Z,88.23
2022-12-24T22:30:40.908Z,87.98
2022-12-24T22:33:08.424Z,88.18
2022-12-24T22:35:41.236Z,88.16
2022-12-24T22:38:09.200Z,88.13
2022-12-24T22:40:36.031Z,88.27
2022-12-24T22:43:02.351Z,87.92
2022-12-24T22:45:28.789Z,88.18
2022-12-24T22:47:55.335Z,88.03
2022-12-24T22:50:21.859Z,88.06
2022-12-24T22:52:48.270Z,88.25
2022-12-24T22:55:14.645Z,88.25
2022-12-24T22:57:41.004Z,88.27
2022-12-24T23:00:13.653Z,88.53
2022-12-24T23:02:40.121Z,88.62
2022-12-24T23:05:06.876Z,88.40
2022-12-24T23:07:33.265Z,88.09
2022-12-24T23:09:59.857Z,88.55
2022-12-24T23:12:44.582Z,88.39
2022-12-24T23:15:11.515Z,88.62
2022-12-24T23:17:37.914Z,88.34
2022-12-24T23:20:04.757Z,88.56
2022-12-24T23:22:31.160Z,88.31
2022-12-24T23:24:57.589Z,88.22
2022-12-24T23:27:24.079Z,88.30
2022-12-24T23:29:50.492Z,88.53
2022-12-24T23:32:16.852Z,88.40
2022-12-24T23:34:43.499Z,88.34
2022-12-24T23:37:09.887Z,88.28
2022-12-24T23:39:36.275Z,88.40
2022-12-24T23:42:02.686Z,88.77
2022-12-24T23:44:32.518Z,88.88
2022-12-24T23:46:59.443Z,88.69
2022-12-24T23:49:26.741Z,88.58
2022-12-24T23:51:53.186Z,88.96
2022-12-24T23:54:19.718Z,88.99
2022-12-24T23:56:46.047Z,88.73
2022-12-24T23:59:12.441Z,89.24
